Terminal Aerodrome Forecast
Issued by NWS Jackson, MS

Home | Current Version | Previous Version | Text Only | Print | Product List | Glossary On
Versions: 1 2 3 4 5 6 7 8 9 10 11 12 13
000
FTUS44 KMEG 191129
TAFTUP
TAF
KTUP 191129Z 1912/2012 03004KT P6SM SCT025 OVC035
      TEMPO 1916/1920 BKN025
     FM192000 04005KT P6SM VCSH SCT015 OVC025
     FM192200 04005KT 5SM -RA BR SCT009 OVC015
      TEMPO 2001/2005 3SM RA BR BKN009
     FM200500 02005KT 5SM BR VCSH BKN009 OVC015=

USA.gov is the U.S. government's official web portal to all federal, state and local government web resources and services.